KCFD

Coulter Field Airport

Bryan, Texas, USA
METAR KCFD 241955Z AUTO 19006KT 10SM -DZ BKN029 OVC037 22/22 A2987 RMK AO2 P0003 T02150215
Observed Flight Rules
Feb-24 @ 19:55 UTC (17 minutes ago) Marginal Visual Flight Rules
Wind Visibility Clouds Conditions
190° at 6 knots 10 miles
  • Broken at 2,900' AGL
  • Overcast at 3,700' AGL
  • Light Drizzle
Temperatures Readings Precipitation
Current 22°C / 72°F
Dewpoint 22°C / 72°F
Humidity 100%
Altimeter 29.87" Hg
Pressure 1012 hPa
Elevation 112
Current Rain 0.03
METAR KCFD 241955Z AUTO 19006KT 10SM -DZ BKN029 OVC037 22/22 A2987 RMK AO2 P0003 T02150215
Observed Flight Rules
Feb-24 @ 19:55 UTC
(17 minutes ago)
MVFR
Wind Visibility
190° at 6 knots 10 miles
Clouds
  • Broken at 2,900' AGL
  • Overcast at 3,700' AGL
Conditions
  • Light Drizzle
Temperature Dewpoint
22°C / 72°F 22°C / 72°F
Humidity Altimeter Pressure
100% 29.87" Hg 1012 hPa
Current Rain
0.03